sensor_id;sensor_type;location;lat;lon;timestamp;temperature;humidity
52058;DHT22;38063;53.210;6.504;2023-04-01T00:00:18;9.60;99.90
52058;DHT22;38063;53.210;6.504;2023-04-01T00:02:43;9.60;99.90
52058;DHT22;38063;53.210;6.504;2023-04-01T00:05:10;9.60;99.90
52058;DHT22;38063;53.210;6.504;2023-04-01T00:07:40;9.60;99.90
52058;DHT22;38063;53.210;6.504;2023-04-01T00:10:07;9.70;99.90
52058;DHT22;38063;53.210;6.504;2023-04-01T00:12:33;9.60;99.90
52058;DHT22;38063;53.210;6.504;2023-04-01T00:14:59;9.60;99.90
52058;DHT22;38063;53.210;6.504;2023-04-01T00:17:25;9.60;99.90
52058;DHT22;38063;53.210;6.504;2023-04-01T00:19:51;9.60;99.90
52058;DHT22;38063;53.210;6.504;2023-04-01T00:22:17;9.60;99.90
52058;DHT22;38063;53.210;6.504;2023-04-01T00:24:42;9.60;99.90
52058;DHT22;38063;53.210;6.504;2023-04-01T00:27:08;9.60;99.90
52058;DHT22;38063;53.210;6.504;2023-04-01T00:29:34;9.60;99.90
52058;DHT22;38063;53.210;6.504;2023-04-01T00:32:00;9.60;99.90
52058;DHT22;38063;53.210;6.504;2023-04-01T00:34:26;10.10;99.90
52058;DHT22;38063;53.210;6.504;2023-04-01T00:36:52;9.60;99.90
52058;DHT22;38063;53.210;6.504;2023-04-01T00:39:19;9.60;99.90
52058;DHT22;38063;53.210;6.504;2023-04-01T00:41:45;9.60;99.90
52058;DHT22;38063;53.210;6.504;2023-04-01T00:44:21;9.60;99.90
52058;DHT22;38063;53.210;6.504;2023-04-01T00:46:48;9.60;99.90
52058;DHT22;38063;53.210;6.504;2023-04-01T00:49:17;9.60;99.90
52058;DHT22;38063;53.210;6.504;2023-04-01T00:51:45;9.80;99.90
52058;DHT22;38063;53.210;6.504;2023-04-01T00:54:14;9.60;99.90
52058;DHT22;38063;53.210;6.504;2023-04-01T00:56:56;9.70;99.90
52058;DHT22;38063;53.210;6.504;2023-04-01T00:59:30;9.60;99.90
52058;DHT22;38063;53.210;6.504;2023-04-01T01:01:57;9.90;99.90
52058;DHT22;38063;53.210;6.504;2023-04-01T01:04:28;9.60;99.90
52058;DHT22;38063;53.210;6.504;2023-04-01T01:12:14;9.60;99.90
52058;DHT22;38063;53.210;6.504;2023-04-01T01:17:26;9.60;99.90
52058;DHT22;38063;53.210;6.504;2023-04-01T01:37:08;9.60;99.90
52058;DHT22;38063;53.210;6.504;2023-04-01T01:39:36;9.60;99.90
52058;DHT22;38063;53.210;6.504;2023-04-01T01:42:08;9.60;99.90
52058;DHT22;38063;53.210;6.504;2023-04-01T01:44:35;9.60;99.90
52058;DHT22;38063;53.210;6.504;2023-04-01T01:47:02;9.60;99.90
52058;DHT22;38063;53.210;6.504;2023-04-01T01:49:30;9.60;99.90
52058;DHT22;38063;53.210;6.504;2023-04-01T01:51:57;9.60;99.90
52058;DHT22;38063;53.210;6.504;2023-04-01T01:54:23;9.60;99.90
52058;DHT22;38063;53.210;6.504;2023-04-01T01:56:52;9.70;99.90
52058;DHT22;38063;53.210;6.504;2023-04-01T01:59:22;9.60;99.90
52058;DHT22;38063;53.210;6.504;2023-04-01T02:01:52;9.60;99.90
52058;DHT22;38063;53.210;6.504;2023-04-01T02:04:21;9.60;99.90
52058;DHT22;38063;53.210;6.504;2023-04-01T02:07:00;9.60;99.90
52058;DHT22;38063;53.210;6.504;2023-04-01T02:09:27;9.60;99.90
52058;DHT22;38063;53.210;6.504;2023-04-01T02:12:04;9.90;99.90
52058;DHT22;38063;53.210;6.504;2023-04-01T02:17:13;9.60;99.90
52058;DHT22;38063;53.210;6.504;2023-04-01T02:19:50;9.70;99.90
52058;DHT22;38063;53.210;6.504;2023-04-01T02:22:21;9.60;99.90
52058;DHT22;38063;53.210;6.504;2023-04-01T02:24:51;9.60;99.90
52058;DHT22;38063;53.210;6.504;2023-04-01T02:27:18;9.60;99.90
52058;DHT22;38063;53.210;6.504;2023-04-01T02:29:44;9.60;99.90
52058;DHT22;38063;53.210;6.504;2023-04-01T02:32:10;9.60;99.90
52058;DHT22;38063;53.210;6.504;2023-04-01T02:34:36;9.60;99.90
52058;DHT22;38063;53.210;6.504;2023-04-01T02:37:02;9.60;99.90
52058;DHT22;38063;53.210;6.504;2023-04-01T02:39:28;9.80;99.90
52058;DHT22;38063;53.210;6.504;2023-04-01T02:41:53;9.60;99.90
52058;DHT22;38063;53.210;6.504;2023-04-01T02:44:19;9.60;99.90
52058;DHT22;38063;53.210;6.504;2023-04-01T02:46:44;9.60;99.90
52058;DHT22;38063;53.210;6.504;2023-04-01T02:49:10;9.60;99.90
52058;DHT22;38063;53.210;6.504;2023-04-01T02:51:36;9.60;99.90
52058;DHT22;38063;53.210;6.504;2023-04-01T02:54:02;9.50;99.90
52058;DHT22;38063;53.210;6.504;2023-04-01T02:56:27;9.50;99.90
52058;DHT22;38063;53.210;6.504;2023-04-01T02:58:54;9.50;99.90
52058;DHT22;38063;53.210;6.504;2023-04-01T03:01:20;9.50;99.90
52058;DHT22;38063;53.210;6.504;2023-04-01T03:03:46;9.50;99.90
52058;DHT22;38063;53.210;6.504;2023-04-01T03:06:14;9.50;99.90
52058;DHT22;38063;53.210;6.504;2023-04-01T03:08:40;9.50;99.90
52058;DHT22;38063;53.210;6.504;2023-04-01T03:11:06;9.50;99.90
52058;DHT22;38063;53.210;6.504;2023-04-01T03:13:32;9.90;99.90
52058;DHT22;38063;53.210;6.504;2023-04-01T03:15:58;9.50;99.90
52058;DHT22;38063;53.210;6.504;2023-04-01T03:18:24;9.50;99.90
52058;DHT22;38063;53.210;6.504;2023-04-01T03:20:50;9.50;99.90
52058;DHT22;38063;53.210;6.504;2023-04-01T03:23:16;9.50;99.90
52058;DHT22;38063;53.210;6.504;2023-04-01T03:25:46;9.70;99.90
52058;DHT22;38063;53.210;6.504;2023-04-01T03:28:12;9.50;99.90
52058;DHT22;38063;53.210;6.504;2023-04-01T03:30:39;9.50;99.90
52058;DHT22;38063;53.210;6.504;2023-04-01T03:33:06;9.40;99.90
52058;DHT22;38063;53.210;6.504;2023-04-01T03:35:32;9.50;99.90
52058;DHT22;38063;53.210;6.504;2023-04-01T03:37:57;9.40;99.90
52058;DHT22;38063;53.210;6.504;2023-04-01T03:40:23;9.40;99.90
52058;DHT22;38063;53.210;6.504;2023-04-01T03:42:51;9.50;99.90
52058;DHT22;38063;53.210;6.504;2023-04-01T03:45:17;9.60;99.90
52058;DHT22;38063;53.210;6.504;2023-04-01T03:47:43;9.50;99.90
52058;DHT22;38063;53.210;6.504;2023-04-01T03:50:09;9.40;99.90
52058;DHT22;38063;53.210;6.504;2023-04-01T03:52:36;9.40;99.90
52058;DHT22;38063;53.210;6.504;2023-04-01T03:55:01;9.40;99.90
52058;DHT22;38063;53.210;6.504;2023-04-01T03:57:27;9.40;99.90
52058;DHT22;38063;53.210;6.504;2023-04-01T03:59:53;9.40;99.90
52058;DHT22;38063;53.210;6.504;2023-04-01T04:02:19;9.40;99.90
52058;DHT22;38063;53.210;6.504;2023-04-01T04:04:45;9.60;99.90
52058;DHT22;38063;53.210;6.504;2023-04-01T04:07:12;9.40;99.90
52058;DHT22;38063;53.210;6.504;2023-04-01T04:09:38;9.40;99.90
52058;DHT22;38063;53.210;6.504;2023-04-01T04:12:04;9.40;99.90
52058;DHT22;38063;53.210;6.504;2023-04-01T04:14:31;9.40;99.90
52058;DHT22;38063;53.210;6.504;2023-04-01T04:16:57;9.40;99.90
52058;DHT22;38063;53.210;6.504;2023-04-01T04:19:22;9.30;99.90
52058;DHT22;38063;53.210;6.504;2023-04-01T04:21:49;9.40;99.90
52058;DHT22;38063;53.210;6.504;2023-04-01T04:24:15;9.40;99.90
52058;DHT22;38063;53.210;6.504;2023-04-01T04:26:40;9.40;99.90
52058;DHT22;38063;53.210;6.504;2023-04-01T04:29:06;9.40;99.90
52058;DHT22;38063;53.210;6.504;2023-04-01T04:31:31;9.40;99.90
52058;DHT22;38063;53.210;6.504;2023-04-01T04:33:59;9.40;99.90
52058;DHT22;38063;53.210;6.504;2023-04-01T04:36:26;9.40;99.90
52058;DHT22;38063;53.210;6.504;2023-04-01T04:38:52;9.40;99.90
52058;DHT22;38063;53.210;6.504;2023-04-01T04:41:18;9.50;99.90
52058;DHT22;38063;53.210;6.504;2023-04-01T04:43:55;9.40;99.90
52058;DHT22;38063;53.210;6.504;2023-04-01T04:46:21;9.40;99.90
52058;DHT22;38063;53.210;6.504;2023-04-01T04:48:47;9.60;99.90
52058;DHT22;38063;53.210;6.504;2023-04-01T04:51:17;9.40;99.90
52058;DHT22;38063;53.210;6.504;2023-04-01T04:53:43;9.40;99.90
52058;DHT22;38063;53.210;6.504;2023-04-01T04:56:09;9.40;99.90
52058;DHT22;38063;53.210;6.504;2023-04-01T04:58:36;9.40;99.90
52058;DHT22;38063;53.210;6.504;2023-04-01T05:01:07;9.40;99.90
52058;DHT22;38063;53.210;6.504;2023-04-01T05:03:32;9.40;99.90
52058;DHT22;38063;53.210;6.504;2023-04-01T05:05:58;9.80;99.90
52058;DHT22;38063;53.210;6.504;2023-04-01T05:08:23;9.40;99.90
52058;DHT22;38063;53.210;6.504;2023-04-01T05:10:49;9.40;99.90
52058;DHT22;38063;53.210;6.504;2023-04-01T05:13:15;9.40;99.90
52058;DHT22;38063;53.210;6.504;2023-04-01T05:15:40;9.80;99.90
52058;DHT22;38063;53.210;6.504;2023-04-01T05:18:06;9.40;99.90
52058;DHT22;38063;53.210;6.504;2023-04-01T05:20:32;9.40;99.90
52058;DHT22;38063;53.210;6.504;2023-04-01T05:22:58;9.40;99.90
52058;DHT22;38063;53.210;6.504;2023-04-01T05:25:25;9.50;99.90
52058;DHT22;38063;53.210;6.504;2023-04-01T05:27:51;9.50;99.90
52058;DHT22;38063;53.210;6.504;2023-04-01T05:30:17;9.40;99.90
52058;DHT22;38063;53.210;6.504;2023-04-01T05:32:43;9.50;99.90
52058;DHT22;38063;53.210;6.504;2023-04-01T05:35:09;9.80;99.90
52058;DHT22;38063;53.210;6.504;2023-04-01T05:37:35;9.40;99.90
52058;DHT22;38063;53.210;6.504;2023-04-01T05:40:02;9.40;99.90
52058;DHT22;38063;53.210;6.504;2023-04-01T05:42:28;9.40;99.90
52058;DHT22;38063;53.210;6.504;2023-04-01T05:44:53;9.40;99.90
52058;DHT22;38063;53.210;6.504;2023-04-01T05:47:21;9.50;99.90
52058;DHT22;38063;53.210;6.504;2023-04-01T05:49:47;9.50;99.90
52058;DHT22;38063;53.210;6.504;2023-04-01T05:52:12;9.40;99.90
52058;DHT22;38063;53.210;6.504;2023-04-01T05:54:38;9.40;99.90
52058;DHT22;38063;53.210;6.504;2023-04-01T05:57:04;9.50;99.90
52058;DHT22;38063;53.210;6.504;2023-04-01T05:59:29;9.40;99.90
52058;DHT22;38063;53.210;6.504;2023-04-01T06:01:57;9.40;99.90
52058;DHT22;38063;53.210;6.504;2023-04-01T06:04:22;9.40;99.90
52058;DHT22;38063;53.210;6.504;2023-04-01T06:06:48;9.60;99.90
52058;DHT22;38063;53.210;6.504;2023-04-01T06:09:19;9.40;99.90
52058;DHT22;38063;53.210;6.504;2023-04-01T06:14:43;9.40;99.90
52058;DHT22;38063;53.210;6.504;2023-04-01T06:17:37;9.40;99.90
52058;DHT22;38063;53.210;6.504;2023-04-01T06:34:29;9.50;99.90
52058;DHT22;38063;53.210;6.504;2023-04-01T06:42:31;9.60;99.90
52058;DHT22;38063;53.210;6.504;2023-04-01T06:48:09;9.60;99.90
52058;DHT22;38063;53.210;6.504;2023-04-01T06:53:25;9.70;99.90
52058;DHT22;38063;53.210;6.504;2023-04-01T06:55:59;9.70;99.90
52058;DHT22;38063;53.210;6.504;2023-04-01T06:58:29;9.70;99.90
52058;DHT22;38063;53.210;6.504;2023-04-01T07:00:58;9.90;99.90
52058;DHT22;38063;53.210;6.504;2023-04-01T07:03:38;9.80;99.90
52058;DHT22;38063;53.210;6.504;2023-04-01T07:09:00;9.80;99.90
52058;DHT22;38063;53.210;6.504;2023-04-01T07:11:31;9.80;99.90
52058;DHT22;38063;53.210;6.504;2023-04-01T07:14:04;9.80;99.90
52058;DHT22;38063;53.210;6.504;2023-04-01T07:16:41;9.80;99.90
52058;DHT22;38063;53.210;6.504;2023-04-01T07:19:20;9.80;99.90
52058;DHT22;38063;53.210;6.504;2023-04-01T07:21:49;9.80;99.90
52058;DHT22;38063;53.210;6.504;2023-04-01T07:24:26;9.90;99.90
52058;DHT22;38063;53.210;6.504;2023-04-01T07:26:55;9.90;99.90
52058;DHT22;38063;53.210;6.504;2023-04-01T07:29:21;10.20;99.90
52058;DHT22;38063;53.210;6.504;2023-04-01T08:07:46;10.10;99.90
52058;DHT22;38063;53.210;6.504;2023-04-01T08:10:36;10.10;99.90
52058;DHT22;38063;53.210;6.504;2023-04-01T08:13:29;10.20;99.90
52058;DHT22;38063;53.210;6.504;2023-04-01T08:21:47;10.30;99.90
52058;DHT22;38063;53.210;6.504;2023-04-01T08:24:42;10.30;99.90
52058;DHT22;38063;53.210;6.504;2023-04-01T08:28:09;10.40;99.90
52058;DHT22;38063;53.210;6.504;2023-04-01T08:33:17;10.50;99.90
52058;DHT22;38063;53.210;6.504;2023-04-01T08:38:32;10.60;99.90
52058;DHT22;38063;53.210;6.504;2023-04-01T08:52:29;10.80;99.90
52058;DHT22;38063;53.210;6.504;2023-04-01T08:57:42;10.90;99.90
52058;DHT22;38063;53.210;6.504;2023-04-01T09:06:29;10.40;99.90
52058;DHT22;38063;53.210;6.504;2023-04-01T09:09:15;10.40;99.90
52058;DHT22;38063;53.210;6.504;2023-04-01T09:40:25;9.90;99.90
52058;DHT22;38063;53.210;6.504;2023-04-01T09:48:24;9.90;99.90
52058;DHT22;38063;53.210;6.504;2023-04-01T09:53:53;9.90;99.90
52058;DHT22;38063;53.210;6.504;2023-04-01T09:56:39;9.90;99.90
52058;DHT22;38063;53.210;6.504;2023-04-01T10:25:30;9.80;99.90
52058;DHT22;38063;53.210;6.504;2023-04-01T10:31:06;9.80;99.90
52058;DHT22;38063;53.210;6.504;2023-04-01T10:53:46;9.60;99.90
52058;DHT22;38063;53.210;6.504;2023-04-01T10:56:45;9.60;99.90
52058;DHT22;38063;53.210;6.504;2023-04-01T11:38:23;9.30;99.90
52058;DHT22;38063;53.210;6.504;2023-04-01T11:43:49;9.30;99.90
52058;DHT22;38063;53.210;6.504;2023-04-01T11:52:03;9.50;99.90
52058;DHT22;38063;53.210;6.504;2023-04-01T12:08:57;9.60;99.90
52058;DHT22;38063;53.210;6.504;2023-04-01T12:11:50;9.60;99.90
52058;DHT22;38063;53.210;6.504;2023-04-01T12:14:30;9.60;99.90
52058;DHT22;38063;53.210;6.504;2023-04-01T12:23:29;9.60;99.90
52058;DHT22;38063;53.210;6.504;2023-04-01T12:26:18;9.50;99.90
52058;DHT22;38063;53.210;6.504;2023-04-01T12:34:26;9.60;99.90
52058;DHT22;38063;53.210;6.504;2023-04-01T12:37:05;9.60;99.90
52058;DHT22;38063;53.210;6.504;2023-04-01T12:45:30;9.60;99.90
52058;DHT22;38063;53.210;6.504;2023-04-01T12:51:07;9.60;99.90
52058;DHT22;38063;53.210;6.504;2023-04-01T12:53:44;9.50;99.90
52058;DHT22;38063;53.210;6.504;2023-04-01T13:05:32;9.60;99.90
52058;DHT22;38063;53.210;6.504;2023-04-01T13:08:24;9.50;99.90
52058;DHT22;38063;53.210;6.504;2023-04-01T13:11:12;9.40;99.90
52058;DHT22;38063;53.210;6.504;2023-04-01T13:16:46;9.50;99.90
52058;DHT22;38063;53.210;6.504;2023-04-01T13:29:35;9.50;99.90
52058;DHT22;38063;53.210;6.504;2023-04-01T13:32:06;9.50;99.90
52058;DHT22;38063;53.210;6.504;2023-04-01T13:35:13;9.50;99.90
52058;DHT22;38063;53.210;6.504;2023-04-01T13:45:29;9.50;99.90
52058;DHT22;38063;53.210;6.504;2023-04-01T13:48:26;9.40;99.90
52058;DHT22;38063;53.210;6.504;2023-04-01T13:51:18;9.40;99.90
52058;DHT22;38063;53.210;6.504;2023-04-01T14:00:19;9.50;99.90
52058;DHT22;38063;53.210;6.504;2023-04-01T14:03:20;9.50;99.90
52058;DHT22;38063;53.210;6.504;2023-04-01T14:25:47;9.00;99.90
52058;DHT22;38063;53.210;6.504;2023-04-01T14:28:44;9.00;99.90
52058;DHT22;38063;53.210;6.504;2023-04-01T14:36:51;8.90;99.90
52058;DHT22;38063;53.210;6.504;2023-04-01T14:42:38;8.80;99.90
52058;DHT22;38063;53.210;6.504;2023-04-01T14:50:09;8.70;99.90
52058;DHT22;38063;53.210;6.504;2023-04-01T14:52:46;8.90;99.90
52058;DHT22;38063;53.210;6.504;2023-04-01T14:55:34;8.70;99.90
52058;DHT22;38063;53.210;6.504;2023-04-01T15:01:13;8.90;99.90
52058;DHT22;38063;53.210;6.504;2023-04-01T15:12:00;8.40;99.90
52058;DHT22;38063;53.210;6.504;2023-04-01T15:20:22;8.20;99.90
52058;DHT22;38063;53.210;6.504;2023-04-01T15:23:08;8.20;99.90
52058;DHT22;38063;53.210;6.504;2023-04-01T15:26:01;8.10;99.90
52058;DHT22;38063;53.210;6.504;2023-04-01T15:31:12;8.10;99.90
52058;DHT22;38063;53.210;6.504;2023-04-01T15:33:48;8.30;99.90
52058;DHT22;38063;53.210;6.504;2023-04-01T15:36:31;8.00;99.90
52058;DHT22;38063;53.210;6.504;2023-04-01T15:39:11;8.00;99.90
52058;DHT22;38063;53.210;6.504;2023-04-01T15:44:53;8.00;99.90
52058;DHT22;38063;53.210;6.504;2023-04-01T15:49:59;7.90;99.90
52058;DHT22;38063;53.210;6.504;2023-04-01T15:53:04;7.90;99.90
52058;DHT22;38063;53.210;6.504;2023-04-01T16:01:23;7.70;99.90
52058;DHT22;38063;53.210;6.504;2023-04-01T16:09:18;7.70;99.90
52058;DHT22;38063;53.210;6.504;2023-04-01T16:12:07;7.60;99.90
52058;DHT22;38063;53.210;6.504;2023-04-01T16:15:01;7.60;99.90
52058;DHT22;38063;53.210;6.504;2023-04-01T16:18:28;7.50;99.90
52058;DHT22;38063;53.210;6.504;2023-04-01T16:20:57;7.50;99.90
52058;DHT22;38063;53.210;6.504;2023-04-01T16:23:51;7.40;99.90
52058;DHT22;38063;53.210;6.504;2023-04-01T16:26:36;7.30;99.90
52058;DHT22;38063;53.210;6.504;2023-04-01T16:29:28;7.30;99.90
52058;DHT22;38063;53.210;6.504;2023-04-01T16:34:58;7.30;99.90
52058;DHT22;38063;53.210;6.504;2023-04-01T16:37:33;7.30;99.90
52058;DHT22;38063;53.210;6.504;2023-04-01T16:42:54;7.20;99.90
52058;DHT22;38063;53.210;6.504;2023-04-01T16:47:58;7.10;99.90
52058;DHT22;38063;53.210;6.504;2023-04-01T16:53:48;7.20;99.90
52058;DHT22;38063;53.210;6.504;2023-04-01T16:56:25;7.00;99.90
52058;DHT22;38063;53.210;6.504;2023-04-01T16:59:02;7.00;99.90
52058;DHT22;38063;53.210;6.504;2023-04-01T17:01:40;7.00;99.90
52058;DHT22;38063;53.210;6.504;2023-04-01T17:04:34;7.30;99.90
52058;DHT22;38063;53.210;6.504;2023-04-01T17:07:24;7.00;99.90
52058;DHT22;38063;53.210;6.504;2023-04-01T17:21:15;6.90;99.90
52058;DHT22;38063;53.210;6.504;2023-04-01T17:24:02;6.90;99.90
52058;DHT22;38063;53.210;6.504;2023-04-01T17:26:44;6.90;99.90
52058;DHT22;38063;53.210;6.504;2023-04-01T17:32:15;6.80;99.90
52058;DHT22;38063;53.210;6.504;2023-04-01T17:35:02;6.80;99.90
52058;DHT22;38063;53.210;6.504;2023-04-01T17:41:19;6.70;99.90
52058;DHT22;38063;53.210;6.504;2023-04-01T17:43:57;6.70;99.90
52058;DHT22;38063;53.210;6.504;2023-04-01T17:49:02;6.70;99.90
52058;DHT22;38063;53.210;6.504;2023-04-01T17:57:43;6.50;99.90
52058;DHT22;38063;53.210;6.504;2023-04-01T18:00:27;6.50;99.90
52058;DHT22;38063;53.210;6.504;2023-04-01T18:06:10;6.50;99.90
52058;DHT22;38063;53.210;6.504;2023-04-01T18:09:02;6.40;99.90
52058;DHT22;38063;53.210;6.504;2023-04-01T18:11:54;6.40;99.90
52058;DHT22;38063;53.210;6.504;2023-04-01T18:19:59;6.30;99.90
52058;DHT22;38063;53.210;6.504;2023-04-01T18:25:33;6.30;99.90
52058;DHT22;38063;53.210;6.504;2023-04-01T18:28:22;6.30;99.90
52058;DHT22;38063;53.210;6.504;2023-04-01T18:33:57;6.30;99.90
52058;DHT22;38063;53.210;6.504;2023-04-01T18:36:56;6.30;99.90
52058;DHT22;38063;53.210;6.504;2023-04-01T18:39:39;6.30;99.90
52058;DHT22;38063;53.210;6.504;2023-04-01T18:42:23;6.20;99.90
52058;DHT22;38063;53.210;6.504;2023-04-01T18:45:01;6.20;99.90
52058;DHT22;38063;53.210;6.504;2023-04-01T18:50:57;6.20;99.90
52058;DHT22;38063;53.210;6.504;2023-04-01T18:54:16;6.10;99.90
52058;DHT22;38063;53.210;6.504;2023-04-01T18:56:37;6.00;99.90
52058;DHT22;38063;53.210;6.504;2023-04-01T18:59:34;6.10;99.90
52058;DHT22;38063;53.210;6.504;2023-04-01T19:05:18;6.00;99.90
52058;DHT22;38063;53.210;6.504;2023-04-01T19:07:50;6.00;99.90
52058;DHT22;38063;53.210;6.504;2023-04-01T19:10:37;6.00;99.90
52058;DHT22;38063;53.210;6.504;2023-04-01T19:16:04;5.80;99.90
52058;DHT22;38063;53.210;6.504;2023-04-01T19:18:59;5.90;99.90
52058;DHT22;38063;53.210;6.504;2023-04-01T19:26:39;5.80;99.90
52058;DHT22;38063;53.210;6.504;2023-04-01T19:29:47;5.80;99.90
52058;DHT22;38063;53.210;6.504;2023-04-01T19:41:14;5.70;99.90
52058;DHT22;38063;53.210;6.504;2023-04-01T19:46:33;5.60;99.90
52058;DHT22;38063;53.210;6.504;2023-04-01T20:05:45;5.40;99.90
52058;DHT22;38063;53.210;6.504;2023-04-01T20:08:40;5.40;99.90
52058;DHT22;38063;53.210;6.504;2023-04-01T20:19:42;5.40;99.90
52058;DHT22;38063;53.210;6.504;2023-04-01T20:22:23;5.30;99.90
52058;DHT22;38063;53.210;6.504;2023-04-01T20:24:52;5.30;99.90
52058;DHT22;38063;53.210;6.504;2023-04-01T20:27:25;5.30;99.90
52058;DHT22;38063;53.210;6.504;2023-04-01T20:32:58;5.30;99.90
52058;DHT22;38063;53.210;6.504;2023-04-01T20:41:17;5.40;99.90
52058;DHT22;38063;53.210;6.504;2023-04-01T20:44:12;5.30;99.90
52058;DHT22;38063;53.210;6.504;2023-04-01T20:49:39;5.30;99.90
52058;DHT22;38063;53.210;6.504;2023-04-01T20:57:57;5.20;99.90
52058;DHT22;38063;53.210;6.504;2023-04-01T21:06:15;5.20;99.90
52058;DHT22;38063;53.210;6.504;2023-04-01T21:09:23;5.20;99.90
52058;DHT22;38063;53.210;6.504;2023-04-01T21:23:42;5.10;99.90
52058;DHT22;38063;53.210;6.504;2023-04-01T21:29:29;5.00;99.90
52058;DHT22;38063;53.210;6.504;2023-04-01T21:48:52;4.90;99.90
52058;DHT22;38063;53.210;6.504;2023-04-01T22:05:22;4.90;99.90
52058;DHT22;38063;53.210;6.504;2023-04-01T22:10:59;4.90;99.90
52058;DHT22;38063;53.210;6.504;2023-04-01T22:13:39;4.90;99.90
52058;DHT22;38063;53.210;6.504;2023-04-01T22:22:04;4.80;99.90
52058;DHT22;38063;53.210;6.504;2023-04-01T22:30:59;4.80;99.90
52058;DHT22;38063;53.210;6.504;2023-04-01T22:33:44;5.00;99.90
52058;DHT22;38063;53.210;6.504;2023-04-01T22:53:33;4.50;99.90
52058;DHT22;38063;53.210;6.504;2023-04-01T22:56:05;4.40;99.90
52058;DHT22;38063;53.210;6.504;2023-04-01T22:58:43;4.40;99.90
52058;DHT22;38063;53.210;6.504;2023-04-01T23:01:15;4.40;99.90
52058;DHT22;38063;53.210;6.504;2023-04-01T23:03:44;4.30;99.90
52058;DHT22;38063;53.210;6.504;2023-04-01T23:06:54;4.20;99.90
52058;DHT22;38063;53.210;6.504;2023-04-01T23:09:35;4.20;99.90
52058;DHT22;38063;53.210;6.504;2023-04-01T23:12:05;4.10;99.90
52058;DHT22;38063;53.210;6.504;2023-04-01T23:20:27;4.10;99.90
52058;DHT22;38063;53.210;6.504;2023-04-01T23:28:48;4.00;99.90
52058;DHT22;38063;53.210;6.504;2023-04-01T23:31:36;3.90;99.90
52058;DHT22;38063;53.210;6.504;2023-04-01T23:36:44;3.90;99.90
52058;DHT22;38063;53.210;6.504;2023-04-01T23:39:47;3.90;99.90
52058;DHT22;38063;53.210;6.504;2023-04-01T23:42:23;3.80;99.90
52058;DHT22;38063;53.210;6.504;2023-04-01T23:44:53;3.80;99.90
52058;DHT22;38063;53.210;6.504;2023-04-01T23:47:26;3.80;99.90
52058;DHT22;38063;53.210;6.504;2023-04-01T23:49:59;3.70;99.90
52058;DHT22;38063;53.210;6.504;2023-04-01T23:52:40;3.70;99.90
52058;DHT22;38063;53.210;6.504;2023-04-01T23:55:37;3.70;99.90
52058;DHT22;38063;53.210;6.504;2023-04-01T23:58:12;3.90;99.90
